sensor_id;sensor_type;location;lat;lon;timestamp;temperature;humidity
51383;DHT22;37475;43.358;1.248;2023-02-03T00:01:30;0.90;90.40
51383;DHT22;37475;43.358;1.248;2023-02-03T00:03:56;1.00;90.20
51383;DHT22;37475;43.358;1.248;2023-02-03T00:06:22;1.00;90.10
51383;DHT22;37475;43.358;1.248;2023-02-03T00:08:48;0.90;90.20
51383;DHT22;37475;43.358;1.248;2023-02-03T00:11:18;0.90;90.50
51383;DHT22;37475;43.358;1.248;2023-02-03T00:13:44;0.90;90.60
51383;DHT22;37475;43.358;1.248;2023-02-03T00:16:10;0.90;90.70
51383;DHT22;37475;43.358;1.248;2023-02-03T00:18:36;0.90;90.70
51383;DHT22;37475;43.358;1.248;2023-02-03T00:21:03;0.70;90.70
51383;DHT22;37475;43.358;1.248;2023-02-03T00:23:30;0.70;90.80
51383;DHT22;37475;43.358;1.248;2023-02-03T00:25:57;0.70;91.00
51383;DHT22;37475;43.358;1.248;2023-02-03T00:28:31;0.70;91.00
51383;DHT22;37475;43.358;1.248;2023-02-03T00:30:57;0.60;91.00
51383;DHT22;37475;43.358;1.248;2023-02-03T00:33:22;0.60;91.00
51383;DHT22;37475;43.358;1.248;2023-02-03T00:35:48;0.50;91.10
51383;DHT22;37475;43.358;1.248;2023-02-03T00:38:14;0.50;91.10
51383;DHT22;37475;43.358;1.248;2023-02-03T00:40:40;0.50;91.10
51383;DHT22;37475;43.358;1.248;2023-02-03T00:43:05;0.40;91.20
51383;DHT22;37475;43.358;1.248;2023-02-03T00:45:31;0.40;91.30
51383;DHT22;37475;43.358;1.248;2023-02-03T00:47:57;0.40;91.20
51383;DHT22;37475;43.358;1.248;2023-02-03T00:50:23;0.50;91.20
51383;DHT22;37475;43.358;1.248;2023-02-03T00:52:48;0.40;91.10
51383;DHT22;37475;43.358;1.248;2023-02-03T00:55:14;0.30;91.10
51383;DHT22;37475;43.358;1.248;2023-02-03T00:57:40;0.20;91.30
51383;DHT22;37475;43.358;1.248;2023-02-03T01:00:07;0.10;91.40
51383;DHT22;37475;43.358;1.248;2023-02-03T01:02:33;0.10;91.50
51383;DHT22;37475;43.358;1.248;2023-02-03T01:04:59;0.10;91.60
51383;DHT22;37475;43.358;1.248;2023-02-03T01:07:25;0.10;91.60
51383;DHT22;37475;43.358;1.248;2023-02-03T01:09:50;0.00;91.70
51383;DHT22;37475;43.358;1.248;2023-02-03T01:12:16;0.00;91.80
51383;DHT22;37475;43.358;1.248;2023-02-03T01:14:42;0.00;91.90
51383;DHT22;37475;43.358;1.248;2023-02-03T01:17:08;0.00;92.00
51383;DHT22;37475;43.358;1.248;2023-02-03T01:19:34;-3276.70;92.20
51383;DHT22;37475;43.358;1.248;2023-02-03T01:21:59;0.00;92.40
51383;DHT22;37475;43.358;1.248;2023-02-03T01:24:25;0.00;92.50
51383;DHT22;37475;43.358;1.248;2023-02-03T01:26:51;0.00;92.50
51383;DHT22;37475;43.358;1.248;2023-02-03T01:29:16;-3276.70;92.50
51383;DHT22;37475;43.358;1.248;2023-02-03T01:31:42;-3276.70;92.50
51383;DHT22;37475;43.358;1.248;2023-02-03T01:34:12;-3276.70;92.50
51383;DHT22;37475;43.358;1.248;2023-02-03T01:36:41;-3276.70;92.60
51383;DHT22;37475;43.358;1.248;2023-02-03T01:39:06;-3276.70;92.60
51383;DHT22;37475;43.358;1.248;2023-02-03T01:41:36;-3276.60;92.50
51383;DHT22;37475;43.358;1.248;2023-02-03T01:44:42;-3276.70;92.60
51383;DHT22;37475;43.358;1.248;2023-02-03T01:50:35;-3276.70;92.70
51383;DHT22;37475;43.358;1.248;2023-02-03T01:53:06;-3276.70;92.70
51383;DHT22;37475;43.358;1.248;2023-02-03T01:55:39;-3276.70;92.70
51383;DHT22;37475;43.358;1.248;2023-02-03T01:58:14;-3276.70;92.70
51383;DHT22;37475;43.358;1.248;2023-02-03T02:00:44;-3276.70;92.60
51383;DHT22;37475;43.358;1.248;2023-02-03T02:03:11;-3276.70;92.60
51383;DHT22;37475;43.358;1.248;2023-02-03T02:06:14;0.00;92.60
51383;DHT22;37475;43.358;1.248;2023-02-03T02:08:36;0.00;92.40
51383;DHT22;37475;43.358;1.248;2023-02-03T02:11:04;0.00;92.20
51383;DHT22;37475;43.358;1.248;2023-02-03T02:13:34;0.00;92.10
51383;DHT22;37475;43.358;1.248;2023-02-03T02:16:16;0.00;92.00
51383;DHT22;37475;43.358;1.248;2023-02-03T02:19:39;0.00;91.80
51383;DHT22;37475;43.358;1.248;2023-02-03T02:33:54;-3276.50;92.30
51383;DHT22;37475;43.358;1.248;2023-02-03T02:39:50;-3276.60;92.40
51383;DHT22;37475;43.358;1.248;2023-02-03T02:42:47;-3276.60;92.30
51383;DHT22;37475;43.358;1.248;2023-02-03T02:45:29;-3276.50;92.10
51383;DHT22;37475;43.358;1.248;2023-02-03T02:51:07;-3276.40;92.30
51383;DHT22;37475;43.358;1.248;2023-02-03T02:53:37;-3276.40;92.60
51383;DHT22;37475;43.358;1.248;2023-02-03T02:56:07;-3276.40;92.80
51383;DHT22;37475;43.358;1.248;2023-02-03T02:58:36;-3276.40;92.90
51383;DHT22;37475;43.358;1.248;2023-02-03T03:01:07;-3276.50;93.00
51383;DHT22;37475;43.358;1.248;2023-02-03T03:03:33;-3276.50;93.10
51383;DHT22;37475;43.358;1.248;2023-02-03T03:06:07;-3276.50;93.00
51383;DHT22;37475;43.358;1.248;2023-02-03T03:08:47;-3276.50;93.00
51383;DHT22;37475;43.358;1.248;2023-02-03T03:11:17;-3276.60;93.10
51383;DHT22;37475;43.358;1.248;2023-02-03T03:13:51;-3276.60;93.00
51383;DHT22;37475;43.358;1.248;2023-02-03T03:16:23;-3276.60;93.00
51383;DHT22;37475;43.358;1.248;2023-02-03T03:19:01;-3276.60;93.00
51383;DHT22;37475;43.358;1.248;2023-02-03T03:21:43;-3276.60;93.00
51383;DHT22;37475;43.358;1.248;2023-02-03T03:24:15;-3276.50;92.90
51383;DHT22;37475;43.358;1.248;2023-02-03T03:27:07;-3276.50;92.80
51383;DHT22;37475;43.358;1.248;2023-02-03T03:29:41;-3276.50;92.90
51383;DHT22;37475;43.358;1.248;2023-02-03T03:32:09;-3276.50;92.80
51383;DHT22;37475;43.358;1.248;2023-02-03T03:34:35;-3276.50;92.90
51383;DHT22;37475;43.358;1.248;2023-02-03T03:40:16;-3276.50;92.90
51383;DHT22;37475;43.358;1.248;2023-02-03T03:43:10;-3276.50;92.90
51383;DHT22;37475;43.358;1.248;2023-02-03T03:45:57;-3276.50;92.90
51383;DHT22;37475;43.358;1.248;2023-02-03T03:48:37;-3276.50;92.90
51383;DHT22;37475;43.358;1.248;2023-02-03T03:51:53;-3276.60;92.90
51383;DHT22;37475;43.358;1.248;2023-02-03T03:54:14;-3276.60;92.90
51383;DHT22;37475;43.358;1.248;2023-02-03T03:56:48;-3276.50;92.80
51383;DHT22;37475;43.358;1.248;2023-02-03T03:59:20;-3276.50;92.80
51383;DHT22;37475;43.358;1.248;2023-02-03T04:01:48;-3276.60;92.80
51383;DHT22;37475;43.358;1.248;2023-02-03T04:04:15;-3276.60;92.80
51383;DHT22;37475;43.358;1.248;2023-02-03T04:06:42;-3276.60;92.70
51383;DHT22;37475;43.358;1.248;2023-02-03T04:09:08;-3276.60;92.70
51383;DHT22;37475;43.358;1.248;2023-02-03T04:11:34;-3276.50;92.60
51383;DHT22;37475;43.358;1.248;2023-02-03T04:14:18;-3276.60;92.60
51383;DHT22;37475;43.358;1.248;2023-02-03T04:16:44;-3276.60;92.50
51383;DHT22;37475;43.358;1.248;2023-02-03T04:19:10;-3276.60;92.40
51383;DHT22;37475;43.358;1.248;2023-02-03T04:21:35;-3276.60;92.40
51383;DHT22;37475;43.358;1.248;2023-02-03T04:24:01;-3276.60;92.30
51383;DHT22;37475;43.358;1.248;2023-02-03T04:26:27;-3276.60;92.20
51383;DHT22;37475;43.358;1.248;2023-02-03T04:28:53;-3276.60;92.00
51383;DHT22;37475;43.358;1.248;2023-02-03T04:31:18;-3276.70;92.00
51383;DHT22;37475;43.358;1.248;2023-02-03T04:33:44;-3276.60;91.70
51383;DHT22;37475;43.358;1.248;2023-02-03T04:36:10;-3276.40;91.80
51383;DHT22;37475;43.358;1.248;2023-02-03T04:38:36;-3276.30;91.90
51383;DHT22;37475;43.358;1.248;2023-02-03T04:41:01;-3276.30;92.10
51383;DHT22;37475;43.358;1.248;2023-02-03T04:43:27;-3276.30;92.10
51383;DHT22;37475;43.358;1.248;2023-02-03T04:45:53;-3276.30;92.20
51383;DHT22;37475;43.358;1.248;2023-02-03T04:48:19;-3276.30;92.30
51383;DHT22;37475;43.358;1.248;2023-02-03T04:50:45;-3276.20;92.30
51383;DHT22;37475;43.358;1.248;2023-02-03T04:53:10;-3276.10;92.40
51383;DHT22;37475;43.358;1.248;2023-02-03T04:55:36;-3276.10;92.50
51383;DHT22;37475;43.358;1.248;2023-02-03T04:58:02;-3276.10;92.50
51383;DHT22;37475;43.358;1.248;2023-02-03T05:00:28;-3276.20;92.50
51383;DHT22;37475;43.358;1.248;2023-02-03T05:02:54;-3276.20;92.30
51383;DHT22;37475;43.358;1.248;2023-02-03T05:05:20;-3276.20;92.30
51383;DHT22;37475;43.358;1.248;2023-02-03T05:07:46;-3276.20;92.10
51383;DHT22;37475;43.358;1.248;2023-02-03T05:10:12;-3275.90;91.70
51383;DHT22;37475;43.358;1.248;2023-02-03T05:12:37;-3276.00;91.90
51383;DHT22;37475;43.358;1.248;2023-02-03T05:15:04;-3276.00;91.70
51383;DHT22;37475;43.358;1.248;2023-02-03T05:17:30;-3275.90;91.50
51383;DHT22;37475;43.358;1.248;2023-02-03T05:19:56;-3275.80;91.60
51383;DHT22;37475;43.358;1.248;2023-02-03T05:22:21;-3275.70;91.80
51383;DHT22;37475;43.358;1.248;2023-02-03T05:24:47;-3275.70;92.00
51383;DHT22;37475;43.358;1.248;2023-02-03T05:27:13;-3275.70;92.20
51383;DHT22;37475;43.358;1.248;2023-02-03T05:29:39;-3275.70;92.30
51383;DHT22;37475;43.358;1.248;2023-02-03T05:32:04;-3275.80;92.40
51383;DHT22;37475;43.358;1.248;2023-02-03T05:34:30;-3275.80;92.20
51383;DHT22;37475;43.358;1.248;2023-02-03T05:36:56;-3275.80;92.10
51383;DHT22;37475;43.358;1.248;2023-02-03T05:39:22;-3275.60;91.90
51383;DHT22;37475;43.358;1.248;2023-02-03T05:41:48;-3275.50;92.40
51383;DHT22;37475;43.358;1.248;2023-02-03T05:44:20;-3275.50;92.70
51383;DHT22;37475;43.358;1.248;2023-02-03T05:46:47;-3275.50;93.00
51383;DHT22;37475;43.358;1.248;2023-02-03T05:49:14;-3275.50;93.20
51383;DHT22;37475;43.358;1.248;2023-02-03T05:51:41;-3275.40;93.40
51383;DHT22;37475;43.358;1.248;2023-02-03T05:54:07;-3275.40;93.60
51383;DHT22;37475;43.358;1.248;2023-02-03T05:56:33;-3275.40;93.80
51383;DHT22;37475;43.358;1.248;2023-02-03T05:58:59;-3275.50;94.00
51383;DHT22;37475;43.358;1.248;2023-02-03T06:01:25;-3275.60;94.10
51383;DHT22;37475;43.358;1.248;2023-02-03T06:03:51;-3275.70;94.10
51383;DHT22;37475;43.358;1.248;2023-02-03T06:06:17;-3275.80;94.00
51383;DHT22;37475;43.358;1.248;2023-02-03T06:08:43;-3275.80;94.00
51383;DHT22;37475;43.358;1.248;2023-02-03T06:11:09;-3275.80;93.90
51383;DHT22;37475;43.358;1.248;2023-02-03T06:13:35;-3275.80;93.90
51383;DHT22;37475;43.358;1.248;2023-02-03T06:16:03;-3275.80;93.80
51383;DHT22;37475;43.358;1.248;2023-02-03T06:18:29;-3275.80;93.80
51383;DHT22;37475;43.358;1.248;2023-02-03T06:20:55;-3275.80;93.70
51383;DHT22;37475;43.358;1.248;2023-02-03T06:23:21;-3275.80;93.70
51383;DHT22;37475;43.358;1.248;2023-02-03T06:25:48;-3275.80;93.60
51383;DHT22;37475;43.358;1.248;2023-02-03T06:28:14;-3275.80;93.60
51383;DHT22;37475;43.358;1.248;2023-02-03T06:30:41;-3275.90;93.50
51383;DHT22;37475;43.358;1.248;2023-02-03T06:33:07;-3275.90;93.50
51383;DHT22;37475;43.358;1.248;2023-02-03T06:35:33;-3275.90;93.50
51383;DHT22;37475;43.358;1.248;2023-02-03T06:37:59;-3276.00;93.60
51383;DHT22;37475;43.358;1.248;2023-02-03T06:40:25;-3276.00;93.40
51383;DHT22;37475;43.358;1.248;2023-02-03T06:42:51;-3276.00;93.40
51383;DHT22;37475;43.358;1.248;2023-02-03T06:45:17;-3275.90;93.30
51383;DHT22;37475;43.358;1.248;2023-02-03T06:47:44;-3276.00;93.20
51383;DHT22;37475;43.358;1.248;2023-02-03T06:50:13;-3276.00;93.10
51383;DHT22;37475;43.358;1.248;2023-02-03T06:52:39;-3276.00;93.10
51383;DHT22;37475;43.358;1.248;2023-02-03T06:55:07;-3275.90;93.10
51383;DHT22;37475;43.358;1.248;2023-02-03T06:57:33;-3275.90;93.00
51383;DHT22;37475;43.358;1.248;2023-02-03T06:59:59;-3275.90;93.00
51383;DHT22;37475;43.358;1.248;2023-02-03T07:02:25;-3275.90;93.00
51383;DHT22;37475;43.358;1.248;2023-02-03T07:04:50;-3275.90;93.00
51383;DHT22;37475;43.358;1.248;2023-02-03T07:07:16;-3275.90;92.80
51383;DHT22;37475;43.358;1.248;2023-02-03T07:09:42;-3275.70;92.80
51383;DHT22;37475;43.358;1.248;2023-02-03T07:12:08;-3275.70;92.90
51383;DHT22;37475;43.358;1.248;2023-02-03T07:14:34;-3275.60;93.00
51383;DHT22;37475;43.358;1.248;2023-02-03T07:17:01;-3275.60;93.10
51383;DHT22;37475;43.358;1.248;2023-02-03T07:19:27;-3275.60;93.20
51383;DHT22;37475;43.358;1.248;2023-02-03T07:21:53;-3275.60;93.40
51383;DHT22;37475;43.358;1.248;2023-02-03T07:24:19;-3275.60;93.50
51383;DHT22;37475;43.358;1.248;2023-02-03T07:26:45;-3275.60;93.50
51383;DHT22;37475;43.358;1.248;2023-02-03T07:29:11;-3275.60;93.50
51383;DHT22;37475;43.358;1.248;2023-02-03T07:31:37;-3275.60;93.50
51383;DHT22;37475;43.358;1.248;2023-02-03T07:34:03;-3275.60;93.50
51383;DHT22;37475;43.358;1.248;2023-02-03T07:36:29;-3275.60;93.50
51383;DHT22;37475;43.358;1.248;2023-02-03T07:38:55;-3275.60;93.50
51383;DHT22;37475;43.358;1.248;2023-02-03T07:41:21;-3275.60;93.50
51383;DHT22;37475;43.358;1.248;2023-02-03T07:43:47;-3275.70;93.50
51383;DHT22;37475;43.358;1.248;2023-02-03T07:46:13;-3275.80;93.40
51383;DHT22;37475;43.358;1.248;2023-02-03T07:48:38;-3275.80;93.40
51383;DHT22;37475;43.358;1.248;2023-02-03T07:51:04;-3275.80;93.30
51383;DHT22;37475;43.358;1.248;2023-02-03T07:53:30;-3275.90;93.20
51383;DHT22;37475;43.358;1.248;2023-02-03T07:56:03;-3276.00;93.20
51383;DHT22;37475;43.358;1.248;2023-02-03T07:58:30;-3276.00;93.20
51383;DHT22;37475;43.358;1.248;2023-02-03T08:00:57;-3276.10;93.20
51383;DHT22;37475;43.358;1.248;2023-02-03T08:03:23;-3276.10;93.10
51383;DHT22;37475;43.358;1.248;2023-02-03T08:05:49;-3276.20;93.10
51383;DHT22;37475;43.358;1.248;2023-02-03T08:08:16;-3276.20;93.10
51383;DHT22;37475;43.358;1.248;2023-02-03T08:10:42;-3276.30;93.00
51383;DHT22;37475;43.358;1.248;2023-02-03T08:13:08;-3276.40;92.90
51383;DHT22;37475;43.358;1.248;2023-02-03T08:15:34;-3276.40;92.80
51383;DHT22;37475;43.358;1.248;2023-02-03T08:17:59;-3276.50;92.70
51383;DHT22;37475;43.358;1.248;2023-02-03T08:20:25;-3276.50;92.60
51383;DHT22;37475;43.358;1.248;2023-02-03T08:22:51;-3276.60;92.50
51383;DHT22;37475;43.358;1.248;2023-02-03T08:25:17;-3276.70;92.40
51383;DHT22;37475;43.358;1.248;2023-02-03T08:27:43;0.00;92.40
51383;DHT22;37475;43.358;1.248;2023-02-03T08:30:12;0.00;92.30
51383;DHT22;37475;43.358;1.248;2023-02-03T08:32:38;0.20;92.30
51383;DHT22;37475;43.358;1.248;2023-02-03T08:35:05;0.30;92.20
51383;DHT22;37475;43.358;1.248;2023-02-03T08:37:31;0.40;92.10
51383;DHT22;37475;43.358;1.248;2023-02-03T08:39:58;0.40;91.90
51383;DHT22;37475;43.358;1.248;2023-02-03T08:42:24;0.50;91.70
51383;DHT22;37475;43.358;1.248;2023-02-03T08:44:50;0.60;91.70
51383;DHT22;37475;43.358;1.248;2023-02-03T08:47:16;0.70;91.60
51383;DHT22;37475;43.358;1.248;2023-02-03T08:49:43;0.70;91.50
51383;DHT22;37475;43.358;1.248;2023-02-03T08:52:10;0.80;91.10
51383;DHT22;37475;43.358;1.248;2023-02-03T08:54:37;0.90;90.90
51383;DHT22;37475;43.358;1.248;2023-02-03T08:57:03;1.00;90.70
51383;DHT22;37475;43.358;1.248;2023-02-03T08:59:29;1.10;90.50
51383;DHT22;37475;43.358;1.248;2023-02-03T09:01:55;1.20;90.20
51383;DHT22;37475;43.358;1.248;2023-02-03T09:04:24;1.30;90.10
51383;DHT22;37475;43.358;1.248;2023-02-03T09:06:51;1.40;89.90
51383;DHT22;37475;43.358;1.248;2023-02-03T09:09:19;1.50;89.80
51383;DHT22;37475;43.358;1.248;2023-02-03T09:11:45;1.60;89.60
51383;DHT22;37475;43.358;1.248;2023-02-03T09:14:11;1.80;89.30
51383;DHT22;37475;43.358;1.248;2023-02-03T09:16:38;1.90;88.80
51383;DHT22;37475;43.358;1.248;2023-02-03T09:19:03;2.10;88.50
51383;DHT22;37475;43.358;1.248;2023-02-03T09:21:29;2.30;87.60
51383;DHT22;37475;43.358;1.248;2023-02-03T09:23:55;2.30;87.20
51383;DHT22;37475;43.358;1.248;2023-02-03T09:26:25;2.40;87.60
51383;DHT22;37475;43.358;1.248;2023-02-03T09:28:51;2.50;87.30
51383;DHT22;37475;43.358;1.248;2023-02-03T09:31:17;2.50;87.30
51383;DHT22;37475;43.358;1.248;2023-02-03T09:33:44;2.60;87.10
51383;DHT22;37475;43.358;1.248;2023-02-03T09:36:11;2.70;86.90
51383;DHT22;37475;43.358;1.248;2023-02-03T09:38:38;3.00;87.10
51383;DHT22;37475;43.358;1.248;2023-02-03T09:46:55;3.30;84.90
51383;DHT22;37475;43.358;1.248;2023-02-03T09:57:30;3.90;83.90
51383;DHT22;37475;43.358;1.248;2023-02-03T10:00:03;4.10;83.20
51383;DHT22;37475;43.358;1.248;2023-02-03T10:06:03;4.20;82.80
51383;DHT22;37475;43.358;1.248;2023-02-03T10:17:30;4.90;82.10
51383;DHT22;37475;43.358;1.248;2023-02-03T10:22:39;5.40;81.00
51383;DHT22;37475;43.358;1.248;2023-02-03T10:25:15;5.60;81.00
51383;DHT22;37475;43.358;1.248;2023-02-03T10:27:43;5.60;80.70
51383;DHT22;37475;43.358;1.248;2023-02-03T10:30:21;6.00;79.40
51383;DHT22;37475;43.358;1.248;2023-02-03T10:33:12;6.30;79.30
51383;DHT22;37475;43.358;1.248;2023-02-03T10:36:01;6.90;78.70
51383;DHT22;37475;43.358;1.248;2023-02-03T10:41:14;7.40;75.70
51383;DHT22;37475;43.358;1.248;2023-02-03T10:43:41;7.90;75.10
51383;DHT22;37475;43.358;1.248;2023-02-03T10:46:16;8.10;73.10
51383;DHT22;37475;43.358;1.248;2023-02-03T10:48:44;8.60;72.90
51383;DHT22;37475;43.358;1.248;2023-02-03T10:51:22;8.50;72.00
51383;DHT22;37475;43.358;1.248;2023-02-03T10:53:50;8.60;71.10
51383;DHT22;37475;43.358;1.248;2023-02-03T10:56:25;9.00;70.90
51383;DHT22;37475;43.358;1.248;2023-02-03T10:58:56;9.30;71.60
51383;DHT22;37475;43.358;1.248;2023-02-03T11:01:45;9.60;67.60
51383;DHT22;37475;43.358;1.248;2023-02-03T11:04:26;9.40;68.00
51383;DHT22;37475;43.358;1.248;2023-02-03T11:06:59;9.60;67.20
51383;DHT22;37475;43.358;1.248;2023-02-03T11:09:40;9.90;67.50
51383;DHT22;37475;43.358;1.248;2023-02-03T11:12:17;10.10;66.10
51383;DHT22;37475;43.358;1.248;2023-02-03T11:14:49;10.70;66.60
51383;DHT22;37475;43.358;1.248;2023-02-03T11:19:44;11.70;64.60
51383;DHT22;37475;43.358;1.248;2023-02-03T11:22:57;12.40;60.50
51383;DHT22;37475;43.358;1.248;2023-02-03T11:25:03;12.20;61.80
51383;DHT22;37475;43.358;1.248;2023-02-03T11:27:31;12.80;59.50
51383;DHT22;37475;43.358;1.248;2023-02-03T11:32:42;12.60;60.20
51383;DHT22;37475;43.358;1.248;2023-02-03T11:35:22;12.70;59.70
51383;DHT22;37475;43.358;1.248;2023-02-03T11:37:53;13.60;58.00
51383;DHT22;37475;43.358;1.248;2023-02-03T11:40:31;13.30;55.70
51383;DHT22;37475;43.358;1.248;2023-02-03T11:43:00;13.10;61.00
51383;DHT22;37475;43.358;1.248;2023-02-03T11:45:29;13.30;59.30
51383;DHT22;37475;43.358;1.248;2023-02-03T11:48:13;14.00;59.10
51383;DHT22;37475;43.358;1.248;2023-02-03T12:03:20;16.10;51.90
51383;DHT22;37475;43.358;1.248;2023-02-03T12:06:05;16.60;50.90
51383;DHT22;37475;43.358;1.248;2023-02-03T12:12:19;15.10;52.20
51383;DHT22;37475;43.358;1.248;2023-02-03T12:20:51;17.10;47.30
51383;DHT22;37475;43.358;1.248;2023-02-03T12:23:48;17.60;46.50
51383;DHT22;37475;43.358;1.248;2023-02-03T12:26:21;17.70;46.40
51383;DHT22;37475;43.358;1.248;2023-02-03T12:28:55;17.60;45.20
51383;DHT22;37475;43.358;1.248;2023-02-03T12:31:29;17.70;45.80
51383;DHT22;37475;43.358;1.248;2023-02-03T12:37:20;17.70;42.90
51383;DHT22;37475;43.358;1.248;2023-02-03T12:39:53;17.60;45.40
51383;DHT22;37475;43.358;1.248;2023-02-03T12:42:33;17.90;43.00
51383;DHT22;37475;43.358;1.248;2023-02-03T12:48:18;18.90;41.30
51383;DHT22;37475;43.358;1.248;2023-02-03T12:51:00;19.50;39.30
51383;DHT22;37475;43.358;1.248;2023-02-03T12:53:34;19.30;40.20
51383;DHT22;37475;43.358;1.248;2023-02-03T12:56:12;16.80;42.60
51383;DHT22;37475;43.358;1.248;2023-02-03T12:58:56;16.00;47.30
51383;DHT22;37475;43.358;1.248;2023-02-03T13:01:34;17.10;43.90
51383;DHT22;37475;43.358;1.248;2023-02-03T13:04:23;17.80;42.50
51383;DHT22;37475;43.358;1.248;2023-02-03T13:07:05;18.40;42.40
51383;DHT22;37475;43.358;1.248;2023-02-03T13:09:58;18.80;41.00
51383;DHT22;37475;43.358;1.248;2023-02-03T13:12:40;19.10;40.10
51383;DHT22;37475;43.358;1.248;2023-02-03T13:15:22;18.10;40.10
51383;DHT22;37475;43.358;1.248;2023-02-03T13:18:38;15.50;46.00
51383;DHT22;37475;43.358;1.248;2023-02-03T13:21:00;16.70;44.90
51383;DHT22;37475;43.358;1.248;2023-02-03T13:23:26;16.70;43.40
51383;DHT22;37475;43.358;1.248;2023-02-03T13:31:37;16.00;45.20
51383;DHT22;37475;43.358;1.248;2023-02-03T13:43:04;15.80;49.20
51383;DHT22;37475;43.358;1.248;2023-02-03T13:45:42;16.60;45.70
51383;DHT22;37475;43.358;1.248;2023-02-03T13:48:32;14.60;49.90
51383;DHT22;37475;43.358;1.248;2023-02-03T13:51:07;14.60;51.80
51383;DHT22;37475;43.358;1.248;2023-02-03T13:53:44;15.40;48.30
51383;DHT22;37475;43.358;1.248;2023-02-03T13:56:23;17.00;45.20
51383;DHT22;37475;43.358;1.248;2023-02-03T14:01:29;17.90;43.90
51383;DHT22;37475;43.358;1.248;2023-02-03T14:04:00;18.90;42.00
51383;DHT22;37475;43.358;1.248;2023-02-03T14:09:19;19.60;39.00
51383;DHT22;37475;43.358;1.248;2023-02-03T14:11:50;19.80;39.60
51383;DHT22;37475;43.358;1.248;2023-02-03T14:16:49;18.70;40.60
51383;DHT22;37475;43.358;1.248;2023-02-03T14:22:07;17.30;42.30
51383;DHT22;37475;43.358;1.248;2023-02-03T14:24:43;15.90;46.90
51383;DHT22;37475;43.358;1.248;2023-02-03T14:27:23;14.60;48.40
51383;DHT22;37475;43.358;1.248;2023-02-03T14:30:07;15.50;48.00
51383;DHT22;37475;43.358;1.248;2023-02-03T14:35:17;16.00;46.20
51383;DHT22;37475;43.358;1.248;2023-02-03T14:37:53;16.80;45.40
51383;DHT22;37475;43.358;1.248;2023-02-03T14:57:48;14.80;50.90
51383;DHT22;37475;43.358;1.248;2023-02-03T15:05:48;15.50;48.70
51383;DHT22;37475;43.358;1.248;2023-02-03T15:08:43;15.20;50.50
51383;DHT22;37475;43.358;1.248;2023-02-03T15:13:50;15.40;48.40
51383;DHT22;37475;43.358;1.248;2023-02-03T15:16:19;15.10;49.10
51383;DHT22;37475;43.358;1.248;2023-02-03T15:18:53;15.10;49.30
51383;DHT22;37475;43.358;1.248;2023-02-03T15:21:23;13.90;53.60
51383;DHT22;37475;43.358;1.248;2023-02-03T15:23:50;13.10;56.10
51383;DHT22;37475;43.358;1.248;2023-02-03T15:26:21;12.80;56.50
51383;DHT22;37475;43.358;1.248;2023-02-03T15:31:32;13.00;56.30
51383;DHT22;37475;43.358;1.248;2023-02-03T15:34:12;13.20;56.90
51383;DHT22;37475;43.358;1.248;2023-02-03T15:37:05;14.10;53.90
51383;DHT22;37475;43.358;1.248;2023-02-03T15:39:38;14.60;50.90
51383;DHT22;37475;43.358;1.248;2023-02-03T15:42:12;14.80;51.10
51383;DHT22;37475;43.358;1.248;2023-02-03T15:44:49;15.10;49.60
51383;DHT22;37475;43.358;1.248;2023-02-03T15:47:39;15.20;49.90
51383;DHT22;37475;43.358;1.248;2023-02-03T15:52:57;15.00;50.30
51383;DHT22;37475;43.358;1.248;2023-02-03T15:55:43;15.40;49.00
51383;DHT22;37475;43.358;1.248;2023-02-03T15:58:25;15.50;48.60
51383;DHT22;37475;43.358;1.248;2023-02-03T16:01:03;15.90;48.10
51383;DHT22;37475;43.358;1.248;2023-02-03T16:03:36;15.50;49.00
51383;DHT22;37475;43.358;1.248;2023-02-03T16:06:17;15.60;49.60
51383;DHT22;37475;43.358;1.248;2023-02-03T16:08:55;15.60;48.70
51383;DHT22;37475;43.358;1.248;2023-02-03T16:11:38;15.20;49.40
51383;DHT22;37475;43.358;1.248;2023-02-03T16:14:06;14.10;50.60
51383;DHT22;37475;43.358;1.248;2023-02-03T16:16:35;13.80;51.90
51383;DHT22;37475;43.358;1.248;2023-02-03T16:19:18;14.00;51.50
51383;DHT22;37475;43.358;1.248;2023-02-03T16:24:38;13.40;52.60
51383;DHT22;37475;43.358;1.248;2023-02-03T16:29:45;13.10;54.10
51383;DHT22;37475;43.358;1.248;2023-02-03T16:32:29;12.90;54.60
51383;DHT22;37475;43.358;1.248;2023-02-03T16:35:13;12.60;55.50
51383;DHT22;37475;43.358;1.248;2023-02-03T16:38:15;12.30;56.00
51383;DHT22;37475;43.358;1.248;2023-02-03T16:41:00;12.30;56.50
51383;DHT22;37475;43.358;1.248;2023-02-03T16:43:46;12.00;57.50
51383;DHT22;37475;43.358;1.248;2023-02-03T16:46:30;11.80;58.20
51383;DHT22;37475;43.358;1.248;2023-02-03T16:49:14;11.50;58.60
51383;DHT22;37475;43.358;1.248;2023-02-03T16:51:58;11.40;58.90
51383;DHT22;37475;43.358;1.248;2023-02-03T16:54:24;11.30;59.30
51383;DHT22;37475;43.358;1.248;2023-02-03T16:56:52;11.10;59.80
51383;DHT22;37475;43.358;1.248;2023-02-03T16:59:18;11.00;60.70
51383;DHT22;37475;43.358;1.248;2023-02-03T17:01:44;10.90;60.90
51383;DHT22;37475;43.358;1.248;2023-02-03T17:04:10;10.70;61.40
51383;DHT22;37475;43.358;1.248;2023-02-03T17:06:39;10.60;61.10
51383;DHT22;37475;43.358;1.248;2023-02-03T17:09:06;10.60;61.70
51383;DHT22;37475;43.358;1.248;2023-02-03T17:11:32;10.40;62.40
51383;DHT22;37475;43.358;1.248;2023-02-03T17:13:58;10.20;62.90
51383;DHT22;37475;43.358;1.248;2023-02-03T17:16:25;10.00;63.90
51383;DHT22;37475;43.358;1.248;2023-02-03T17:18:52;9.90;63.70
51383;DHT22;37475;43.358;1.248;2023-02-03T17:21:26;9.70;64.80
51383;DHT22;37475;43.358;1.248;2023-02-03T17:23:53;9.60;65.10
51383;DHT22;37475;43.358;1.248;2023-02-03T17:26:19;9.50;64.80
51383;DHT22;37475;43.358;1.248;2023-02-03T17:28:45;9.50;65.50
51383;DHT22;37475;43.358;1.248;2023-02-03T17:31:18;9.30;66.20
51383;DHT22;37475;43.358;1.248;2023-02-03T17:33:45;9.20;64.90
51383;DHT22;37475;43.358;1.248;2023-02-03T17:36:13;9.10;66.40
51383;DHT22;37475;43.358;1.248;2023-02-03T17:38:41;9.10;65.90
51383;DHT22;37475;43.358;1.248;2023-02-03T17:41:11;8.90;66.50
51383;DHT22;37475;43.358;1.248;2023-02-03T17:43:38;8.80;67.00
51383;DHT22;37475;43.358;1.248;2023-02-03T17:46:04;8.60;67.60
51383;DHT22;37475;43.358;1.248;2023-02-03T17:48:30;8.30;68.20
51383;DHT22;37475;43.358;1.248;2023-02-03T17:51:11;8.30;67.50
51383;DHT22;37475;43.358;1.248;2023-02-03T17:53:39;8.10;69.30
51383;DHT22;37475;43.358;1.248;2023-02-03T17:56:20;8.10;68.80
51383;DHT22;37475;43.358;1.248;2023-02-03T17:58:58;8.00;69.20
51383;DHT22;37475;43.358;1.248;2023-02-03T18:01:25;7.90;68.60
51383;DHT22;37475;43.358;1.248;2023-02-03T18:04:00;7.90;69.40
51383;DHT22;37475;43.358;1.248;2023-02-03T18:06:28;7.80;69.10
51383;DHT22;37475;43.358;1.248;2023-02-03T18:08:55;7.60;69.90
51383;DHT22;37475;43.358;1.248;2023-02-03T18:11:30;7.40;70.90
51383;DHT22;37475;43.358;1.248;2023-02-03T18:13:56;7.20;72.10
51383;DHT22;37475;43.358;1.248;2023-02-03T18:16:25;7.10;73.30